createdAt,value
2023-01-02T00:01:35.183Z,100773.88
2023-01-02T00:04:03.527Z,100781.03
2023-01-02T00:06:35.885Z,100771.31
2023-01-02T00:09:05.197Z,100771.41
2023-01-02T00:11:34.927Z,100768.00
2023-01-02T00:14:03.333Z,100748.53
2023-01-02T00:16:31.781Z,100764.41
2023-01-02T00:19:00.189Z,100742.22
2023-01-02T00:21:28.556Z,100756.41
2023-01-02T00:23:56.873Z,100753.81
2023-01-02T00:26:25.161Z,100752.91
2023-01-02T00:28:56.352Z,100761.84
2023-01-02T00:31:24.801Z,100749.16
2023-01-02T00:33:53.092Z,100748.19
2023-01-02T00:36:22.153Z,100748.19
2023-01-02T00:38:50.422Z,100745.50
2023-01-02T00:41:18.940Z,100751.72
2023-01-02T00:43:47.445Z,100750.81
2023-01-02T00:46:18.739Z,100751.72
2023-01-02T00:48:47.151Z,100749.81
2023-01-02T00:51:15.427Z,100733.22
2023-01-02T00:53:43.796Z,100738.38
2023-01-02T00:56:12.601Z,100743.81
2023-01-02T00:58:40.994Z,100736.78
2023-01-02T01:01:09.332Z,100730.50
2023-01-02T01:03:39.233Z,100726.78
2023-01-02T01:06:08.877Z,100722.25
2023-01-02T01:08:37.445Z,100711.53
2023-01-02T01:11:10.382Z,100717.78
2023-01-02T01:13:39.068Z,100709.75
2023-01-02T01:16:09.549Z,100701.78
2023-01-02T01:18:40.031Z,100693.81
2023-01-02T01:21:10.055Z,100712.34
2023-01-02T01:23:38.795Z,100709.75
2023-01-02T01:26:09.419Z,100696.47
2023-01-02T01:28:38.473Z,100703.56
2023-01-02T01:31:08.727Z,100700.94
2023-01-02T01:33:39.563Z,100694.06
2023-01-02T01:36:10.951Z,100706.97
2023-01-02T01:38:39.531Z,100686.66
2023-01-02T01:41:08.532Z,100714.78
2023-01-02T01:43:39.837Z,100694.66
2023-01-02T01:46:12.300Z,100725.69
2023-01-02T01:48:42.258Z,100728.38
2023-01-02T01:51:10.916Z,100716.84
2023-01-02T01:53:39.706Z,100723.13
2023-01-02T01:56:09.833Z,100723.09
2023-01-02T01:58:43.132Z,100731.00
2023-01-02T02:01:13.993Z,100720.28
2023-01-02T02:03:47.562Z,100724.97
2023-01-02T02:06:17.472Z,100716.22
2023-01-02T02:08:51.365Z,100712.97
2023-01-02T02:11:20.200Z,100611.47
2023-01-02T02:13:49.784Z,100726.84
2023-01-02T02:16:29.910Z,100737.63
2023-01-02T02:19:27.591Z,100736.69
2023-01-02T02:22:17.681Z,100723.34
2023-01-02T02:25:26.839Z,100737.38
2023-01-02T02:28:39.127Z,100735.75
2023-01-02T02:31:14.599Z,100735.78
2023-01-02T02:33:49.733Z,100736.69
2023-01-02T02:36:29.502Z,100740.19
2023-01-02T02:39:09.734Z,100735.72
2023-01-02T02:41:49.468Z,100724.91
2023-01-02T02:44:32.022Z,100735.69
2023-01-02T02:47:07.562Z,100726.28
2023-01-02T02:49:49.594Z,100716.38
2023-01-02T02:52:24.932Z,100713.72
2023-01-02T02:55:01.307Z,100716.28
2023-01-02T02:57:31.751Z,100696.88
2023-01-02T03:00:00.241Z,100697.63
2023-01-02T03:02:30.100Z,100698.59
2023-01-02T03:05:03.461Z,100707.31
2023-01-02T03:07:40.832Z,100719.69
2023-01-02T03:10:23.104Z,100709.03
2023-01-02T03:13:02.133Z,100712.72
2023-01-02T03:15:37.243Z,100716.22
2023-01-02T03:18:18.843Z,100701.34
2023-01-02T03:20:59.971Z,100696.28
2023-01-02T03:23:31.932Z,100702.34
2023-01-02T03:26:00.624Z,100712.19
2023-01-02T03:28:29.004Z,100710.44
2023-01-02T03:31:01.981Z,100713.94
2023-01-02T03:33:37.280Z,100710.50
2023-01-02T03:36:11.639Z,100711.31
2023-01-02T03:38:45.398Z,100707.81
2023-01-02T03:41:20.793Z,100718.19
2023-01-02T03:43:57.088Z,100719.09
2023-01-02T03:46:34.906Z,100720.84
2023-01-02T03:49:09.543Z,100728.94
2023-01-02T03:51:37.969Z,100658.75
2023-01-02T03:54:07.403Z,100737.69
2023-01-02T03:56:45.425Z,100736.91
2023-01-02T03:59:19.432Z,100687.75
2023-01-02T04:01:55.734Z,100735.16
2023-01-02T04:04:36.617Z,100727.25
2023-01-02T04:07:05.912Z,100735.19
2023-01-02T04:09:36.407Z,100745.03
2023-01-02T04:12:12.015Z,100753.16
2023-01-02T04:14:43.889Z,100677.22
2023-01-02T04:17:15.759Z,100762.59
2023-01-02T04:19:50.859Z,100772.75
2023-01-02T04:22:25.699Z,100793.16
2023-01-02T04:24:59.112Z,100793.66
2023-01-02T04:27:33.633Z,100800.22
2023-01-02T04:30:02.217Z,100807.41
2023-01-02T04:32:35.838Z,100809.63
2023-01-02T04:35:11.761Z,100809.91
2023-01-02T04:37:42.623Z,100821.50
2023-01-02T04:40:18.211Z,100831.22
2023-01-02T04:42:46.997Z,100821.63
2023-01-02T04:45:16.473Z,100830.44
2023-01-02T04:47:45.352Z,100830.38
2023-01-02T04:50:15.217Z,100843.66
2023-01-02T04:52:43.933Z,100859.53
2023-01-02T04:55:12.276Z,100855.97
2023-01-02T04:57:40.886Z,100862.94
2023-01-02T05:00:11.496Z,100861.16
2023-01-02T05:02:41.123Z,100874.28
2023-01-02T05:05:10.557Z,100893.78
2023-01-02T05:07:40.864Z,100897.34
2023-01-02T05:10:10.476Z,100912.34
2023-01-02T05:12:40.093Z,100887.16
2023-01-02T05:15:11.571Z,100900.94
2023-01-02T05:17:41.675Z,100894.72
2023-01-02T05:20:13.331Z,100901.06
2023-01-02T05:23:01.983Z,100836.91
2023-01-02T05:25:33.962Z,100933.59
2023-01-02T05:28:03.592Z,100940.63
2023-01-02T05:30:31.990Z,100945.09
2023-01-02T05:33:00.315Z,100948.63
2023-01-02T05:35:32.505Z,100966.28
2023-01-02T05:38:02.947Z,100972.63
2023-01-02T05:40:31.245Z,100965.56
2023-01-02T05:43:00.108Z,100970.88
2023-01-02T05:45:28.446Z,100990.25
2023-01-02T05:47:56.984Z,100993.88
2023-01-02T05:50:25.420Z,100954.34
2023-01-02T05:52:53.785Z,101008.09
2023-01-02T05:55:23.571Z,101018.66
2023-01-02T05:57:58.566Z,101017.78
2023-01-02T06:00:26.944Z,100998.47
2023-01-02T06:02:55.349Z,101020.53
2023-01-02T06:05:23.788Z,101028.41
2023-01-02T06:07:52.129Z,101024.03
2023-01-02T06:10:20.549Z,101030.19
2023-01-02T06:12:50.257Z,101031.91
2023-01-02T06:15:18.621Z,101031.94
2023-01-02T06:17:46.911Z,101037.19
2023-01-02T06:20:16.112Z,101018.69
2023-01-02T06:22:45.015Z,101058.31
2023-01-02T06:25:13.431Z,101050.38
2023-01-02T06:27:41.743Z,100994.06
2023-01-02T06:30:12.511Z,101063.56
2023-01-02T06:32:40.690Z,101076.75
2023-01-02T06:35:09.719Z,101070.53
2023-01-02T06:37:38.028Z,101089.13
2023-01-02T06:40:07.847Z,101081.13
2023-01-02T06:42:36.208Z,101107.59
2023-01-02T06:45:05.240Z,101099.59
2023-01-02T06:47:34.955Z,101087.28
2023-01-02T06:50:03.259Z,101104.06
2023-01-02T06:52:31.609Z,101091.75
2023-01-02T06:55:00.099Z,101118.22
2023-01-02T06:57:31.513Z,101114.72
2023-01-02T06:59:59.872Z,101126.16
2023-01-02T07:02:28.336Z,101132.34
2023-01-02T07:04:58.131Z,101142.03
2023-01-02T07:07:26.486Z,101153.53
2023-01-02T07:09:54.784Z,101162.34
2023-01-02T07:12:23.135Z,101167.63
2023-01-02T07:14:51.428Z,101175.56
2023-01-02T07:17:19.801Z,101168.50
2023-01-02T07:19:53.212Z,101181.72
2023-01-02T07:22:24.228Z,101179.94
2023-01-02T07:24:52.650Z,101192.34
2023-01-02T07:27:21.048Z,101189.69
2023-01-02T07:29:49.389Z,101197.66
2023-01-02T07:32:21.011Z,101211.75
2023-01-02T07:34:53.853Z,101215.34
2023-01-02T07:37:23.491Z,101225.03
2023-01-02T07:39:51.836Z,101229.47
2023-01-02T07:42:20.160Z,101228.56
2023-01-02T07:44:48.537Z,101241.81
2023-01-02T07:47:16.865Z,101247.13
2023-01-02T07:49:45.233Z,101259.47
2023-01-02T07:52:13.658Z,101147.53
2023-01-02T07:54:43.442Z,101275.34
2023-01-02T07:57:11.815Z,101279.81
2023-01-02T07:59:40.198Z,101280.69
2023-01-02T08:02:11.451Z,101290.41
2023-01-02T08:04:40.021Z,101293.00
2023-01-02T08:07:08.341Z,101284.19
2023-01-02T08:09:36.942Z,101269.22
2023-01-02T08:12:07.211Z,101289.50
2023-01-02T08:14:35.567Z,101299.22
2023-01-02T08:17:04.075Z,101307.19
2023-01-02T08:19:32.539Z,101309.81
2023-01-02T08:22:00.889Z,101308.06
2023-01-02T08:24:29.319Z,101320.41
2023-01-02T08:26:57.682Z,101327.47
2023-01-02T08:29:27.405Z,101336.28
2023-01-02T08:31:55.739Z,101314.22
2023-01-02T08:34:24.088Z,101346.03
2023-01-02T08:36:53.452Z,101343.38
2023-01-02T08:39:21.786Z,101351.34
2023-01-02T08:41:50.071Z,101350.47
2023-01-02T08:44:18.700Z,101353.09
2023-01-02T08:46:48.450Z,101361.06
2023-01-02T08:49:17.116Z,101369.03
2023-01-02T08:51:45.673Z,101365.47
2023-01-02T08:54:14.031Z,101354.88
2023-01-02T08:56:42.779Z,101299.25
2023-01-02T08:59:13.590Z,101351.34
2023-01-02T09:01:42.731Z,101369.84
2023-01-02T09:04:13.479Z,101384.88
2023-01-02T09:06:43.404Z,101389.34
2023-01-02T09:09:13.267Z,101392.88
2023-01-02T09:11:47.136Z,101394.63
2023-01-02T09:14:15.582Z,101410.53
2023-01-02T09:16:43.970Z,101323.94
2023-01-02T09:19:13.982Z,101402.59
2023-01-02T09:21:42.381Z,101414.91
2023-01-02T09:24:11.291Z,101410.50
2023-01-02T09:26:41.867Z,101378.69
2023-01-02T09:29:10.613Z,101401.69
2023-01-02T09:31:39.709Z,101391.97
2023-01-02T09:34:09.038Z,101382.22
2023-01-02T09:36:38.951Z,101396.38
2023-01-02T09:39:07.654Z,101412.28
2023-01-02T09:41:38.953Z,101365.47
2023-01-02T09:44:16.011Z,101411.38
2023-01-02T09:46:51.090Z,101375.16
2023-01-02T09:49:23.959Z,101431.72
2023-01-02T09:51:53.956Z,101434.34
2023-01-02T09:54:27.525Z,101440.50
2023-01-02T09:57:20.813Z,101441.38
2023-01-02T09:59:55.257Z,101336.31
2023-01-02T10:02:43.981Z,101467.00
2023-01-02T10:05:59.174Z,101479.38
2023-01-02T10:08:39.127Z,101452.88
2023-01-02T10:11:22.758Z,101459.91
2023-01-02T10:16:49.910Z,101453.72
2023-01-02T10:19:23.866Z,101424.59
2023-01-02T10:21:59.972Z,101436.91
2023-01-02T10:24:41.740Z,101451.97
2023-01-02T10:27:18.708Z,101460.81
2023-01-02T10:29:54.532Z,101465.22
2023-01-02T10:32:26.248Z,101471.44
2023-01-02T10:35:11.024Z,101421.94
2023-01-02T10:37:39.452Z,101473.16
2023-01-02T10:40:10.349Z,101470.41
2023-01-02T10:42:38.744Z,101453.50
2023-01-02T10:45:15.202Z,101474.56
2023-01-02T10:47:44.718Z,101487.81
2023-01-02T10:50:20.796Z,101457.78
2023-01-02T10:52:52.117Z,101391.41
2023-01-02T10:55:38.784Z,101460.09
2023-01-02T10:58:21.861Z,101483.91
2023-01-02T11:00:51.724Z,101488.44
2023-01-02T11:03:26.067Z,101492.91
2023-01-02T11:05:59.413Z,101493.81
2023-01-02T11:08:40.605Z,101508.94
2023-01-02T11:11:19.227Z,101499.28
2023-01-02T11:13:54.026Z,101400.44
2023-01-02T11:16:25.804Z,101524.06
2023-01-02T11:18:56.826Z,101519.72
2023-01-02T11:21:29.608Z,101441.13
2023-01-02T11:24:03.808Z,101525.03
2023-01-02T11:26:36.065Z,101504.75
2023-01-02T11:29:08.953Z,101517.97
2023-01-02T11:31:43.564Z,101515.31
2023-01-02T11:34:21.588Z,101408.47
2023-01-02T11:37:05.419Z,101518.00
2023-01-02T11:39:35.681Z,101516.28
2023-01-02T11:42:35.768Z,101511.03
2023-01-02T11:45:09.313Z,101519.88
2023-01-02T11:47:43.423Z,101515.41
2023-01-02T11:50:16.688Z,101492.50
2023-01-02T11:52:52.873Z,101510.16
2023-01-02T11:55:39.141Z,101514.66
2023-01-02T11:58:19.384Z,101516.44
2023-01-02T12:00:54.031Z,101524.44
2023-01-02T12:03:25.379Z,101526.25
2023-01-02T12:06:15.563Z,101531.56
2023-01-02T12:09:05.357Z,101520.06
2023-01-02T12:11:57.206Z,101531.59
2023-01-02T12:14:52.456Z,101527.16
2023-01-02T12:17:33.682Z,101534.22
2023-01-02T12:20:21.597Z,101505.97
2023-01-02T12:23:12.406Z,101530.69
2023-01-02T12:25:55.367Z,101508.59
2023-01-02T12:28:56.952Z,101538.66
2023-01-02T12:31:44.117Z,101526.28
2023-01-02T12:34:26.422Z,101547.47
2023-01-02T12:37:08.967Z,101551.91
2023-01-02T12:39:58.165Z,101569.59
2023-01-02T12:42:47.593Z,101559.88
2023-01-02T12:45:26.783Z,101552.78
2023-01-02T12:48:25.424Z,101553.66
2023-01-02T12:51:18.519Z,101550.13
2023-01-02T12:54:20.044Z,101558.09
2023-01-02T12:57:00.412Z,101567.81
2023-01-02T13:00:01.003Z,101572.19
2023-01-02T13:02:50.666Z,101572.19
2023-01-02T13:05:26.256Z,101519.97
2023-01-02T13:07:58.115Z,101584.56
2023-01-02T13:10:29.051Z,101587.22
2023-01-02T13:13:00.393Z,101558.94
2023-01-02T13:15:33.419Z,101572.22
2023-01-02T13:18:08.396Z,101581.09
2023-01-02T13:20:46.825Z,101581.97
2023-01-02T13:23:33.067Z,101454.63
2023-01-02T13:26:05.230Z,101579.31
2023-01-02T13:28:33.914Z,101585.50
2023-01-02T13:33:56.026Z,101594.34
2023-01-02T13:36:29.072Z,101584.59
2023-01-02T13:39:01.883Z,101593.47
2023-01-02T13:41:58.308Z,101590.81
2023-01-02T13:44:34.608Z,101593.44
2023-01-02T13:47:19.169Z,101611.13
2023-01-02T13:49:58.769Z,101565.13
2023-01-02T13:52:28.563Z,101624.38
2023-01-02T13:55:32.415Z,101632.31
2023-01-02T13:58:47.298Z,101628.81
2023-01-02T14:02:07.626Z,101639.44
2023-01-02T14:04:41.584Z,101642.09
2023-01-02T14:07:50.473Z,101653.59
2023-01-02T14:10:42.292Z,101682.78
2023-01-02T14:13:20.267Z,101668.56
2023-01-02T14:16:54.658Z,101657.06
2023-01-02T14:19:25.870Z,101663.28
2023-01-02T14:22:11.100Z,101629.66
2023-01-02T14:24:43.350Z,101670.28
2023-01-02T14:27:25.346Z,101571.13
2023-01-02T14:29:56.404Z,101680.91
2023-01-02T14:32:36.135Z,101672.03
2023-01-02T14:35:08.831Z,101687.09
2023-01-02T14:37:41.697Z,101687.94
2023-01-02T14:40:33.996Z,101686.16
2023-01-02T14:43:22.828Z,101703.88
2023-01-02T14:45:54.530Z,101667.63
2023-01-02T14:48:31.750Z,101696.84
2023-01-02T14:51:07.924Z,101702.16
2023-01-02T14:53:51.089Z,101713.66
2023-01-02T14:56:25.168Z,101712.75
2023-01-02T14:58:55.379Z,101734.91
2023-01-02T15:01:43.370Z,101735.78
2023-01-02T15:04:22.441Z,101741.06
2023-01-02T15:07:01.207Z,101725.13
2023-01-02T15:09:37.958Z,101746.28
2023-01-02T15:12:43.266Z,101752.53
2023-01-02T15:15:13.946Z,101762.22
2023-01-02T15:17:43.035Z,101764.75
2023-01-02T15:20:19.843Z,101765.56
2023-01-02T15:22:49.219Z,101776.13
2023-01-02T15:25:36.971Z,101787.53
2023-01-02T15:28:07.614Z,101797.19
2023-01-02T15:30:39.982Z,101798.88
2023-01-02T15:33:27.550Z,101800.41
2023-01-02T15:36:00.263Z,101803.91
2023-01-02T15:38:29.056Z,101816.28
2023-01-02T15:40:58.069Z,101813.63
2023-01-02T15:43:49.170Z,101822.47
2023-01-02T15:46:18.176Z,101742.44
2023-01-02T15:48:48.050Z,101826.88
2023-01-02T15:51:18.760Z,101839.31
2023-01-02T15:53:49.992Z,101801.09
2023-01-02T15:56:34.009Z,101808.03
2023-01-02T15:59:05.116Z,101836.44
2023-01-02T16:01:33.713Z,101852.50
2023-01-02T16:04:06.004Z,101856.00
2023-01-02T16:06:36.848Z,101857.09
2023-01-02T16:09:06.799Z,101867.69
2023-01-02T16:11:45.786Z,101869.44
2023-01-02T16:14:21.996Z,101849.91
2023-01-02T16:16:57.114Z,101880.88
2023-01-02T16:19:33.048Z,101879.91
2023-01-02T16:22:07.752Z,101881.63
2023-01-02T16:24:42.679Z,101886.00
2023-01-02T16:27:15.096Z,101881.56
2023-01-02T16:29:45.629Z,101846.94
2023-01-02T16:32:29.545Z,101905.53
2023-01-02T16:35:19.882Z,101906.38
2023-01-02T16:37:57.486Z,101911.72
2023-01-02T16:41:01.415Z,101897.31
2023-01-02T16:43:35.370Z,101917.63
2023-01-02T16:46:14.978Z,101906.56
2023-01-02T16:48:44.912Z,101911.78
2023-01-02T16:51:16.237Z,101925.00
2023-01-02T16:53:45.999Z,101924.09
2023-01-02T16:56:16.526Z,101921.25
2023-01-02T16:58:44.935Z,101904.38
2023-01-02T17:01:18.048Z,101940.59
2023-01-02T17:03:46.729Z,101948.47
2023-01-02T17:06:18.335Z,101951.25
2023-01-02T17:08:46.907Z,101939.03
2023-01-02T17:11:18.806Z,101954.16
2023-01-02T17:13:47.349Z,101959.53
2023-01-02T17:16:17.685Z,101968.28
2023-01-02T17:18:46.548Z,101963.88
2023-01-02T17:21:14.964Z,101957.53
2023-01-02T17:23:43.546Z,101938.19
2023-01-02T17:26:12.161Z,101954.16
2023-01-02T17:28:40.537Z,101965.00
2023-01-02T17:31:09.211Z,101962.28
2023-01-02T17:33:39.059Z,101971.03
2023-01-02T17:36:08.371Z,101964.94
2023-01-02T17:38:36.708Z,101969.47
2023-01-02T17:41:05.404Z,101975.13
2023-01-02T17:43:34.089Z,101989.13
2023-01-02T17:46:30.353Z,101998.13
2023-01-02T17:48:56.632Z,101981.16
2023-01-02T17:51:25.029Z,102015.81
2023-01-02T17:53:55.870Z,102029.13
2023-01-02T17:56:25.529Z,102034.31
2023-01-02T17:58:53.957Z,102033.50
2023-01-02T18:01:22.436Z,101978.38
2023-01-02T18:03:51.135Z,102027.22
2023-01-02T18:06:21.166Z,102045.75
2023-01-02T18:08:50.417Z,102048.44
2023-01-02T18:11:18.973Z,102046.22
2023-01-02T18:13:50.562Z,102043.88
2023-01-02T18:16:22.089Z,102045.59
2023-01-02T18:18:53.356Z,102052.69
2023-01-02T18:21:27.795Z,102039.38
2023-01-02T18:24:00.526Z,102060.81
2023-01-02T18:26:29.008Z,102042.84
2023-01-02T18:29:09.343Z,102085.53
2023-01-02T18:31:42.164Z,102097.19
2023-01-02T18:34:46.414Z,102087.53
2023-01-02T18:37:19.916Z,102059.06
2023-01-02T18:39:48.886Z,102079.53
2023-01-02T18:42:21.676Z,102068.63
2023-01-02T18:44:50.641Z,102089.25
2023-01-02T18:47:27.714Z,102098.03
2023-01-02T18:50:02.999Z,102061.59
2023-01-02T18:52:34.893Z,102095.31
2023-01-02T18:55:09.290Z,102103.31
2023-01-02T18:57:45.951Z,102106.03
2023-01-02T19:00:25.790Z,102066.88
2023-01-02T19:02:58.123Z,102117.47
2023-01-02T19:05:29.550Z,102110.34
2023-01-02T19:08:23.914Z,102088.94
2023-01-02T19:10:55.853Z,102072.63
2023-01-02T19:13:27.035Z,102117.03
2023-01-02T19:15:58.794Z,102112.53
2023-01-02T19:18:37.105Z,102113.19
2023-01-02T19:21:17.509Z,102124.69
2023-01-02T19:23:54.011Z,102115.56
2023-01-02T19:26:32.550Z,102129.69
2023-01-02T19:29:04.760Z,102112.81
2023-01-02T19:31:42.726Z,102139.34
2023-01-02T19:34:41.149Z,102142.16
2023-01-02T19:37:40.478Z,102150.09
2023-01-02T19:40:19.453Z,102152.63
2023-01-02T19:42:49.561Z,102155.13
2023-01-02T19:45:20.827Z,102167.41
2023-01-02T19:47:50.581Z,102163.94
2023-01-02T19:50:22.996Z,102170.16
2023-01-02T19:52:51.699Z,102117.19
2023-01-02T19:55:21.637Z,102180.84
2023-01-02T19:57:50.320Z,102185.28
2023-01-02T20:00:20.084Z,102190.63
2023-01-02T20:02:50.445Z,102192.41
2023-01-02T20:05:21.901Z,102065.84
2023-01-02T20:07:52.853Z,102194.25
2023-01-02T20:10:22.933Z,102197.66
2023-01-02T20:12:51.357Z,102197.53
2023-01-02T20:15:23.847Z,102197.34
2023-01-02T20:17:53.395Z,102209.38
2023-01-02T20:20:24.287Z,102213.50
2023-01-02T20:22:52.880Z,102196.53
2023-01-02T20:25:26.397Z,102217.84
2023-01-02T20:27:56.860Z,102211.72
2023-01-02T20:30:27.090Z,102207.38
2023-01-02T20:32:56.066Z,102226.63
2023-01-02T20:35:24.620Z,102215.28
2023-01-02T20:37:53.115Z,102211.78
2023-01-02T20:40:22.901Z,102212.69
2023-01-02T20:42:51.479Z,102193.16
2023-01-02T20:45:19.900Z,102223.47
2023-01-02T20:47:48.402Z,102229.63
2023-01-02T20:50:17.658Z,102229.47
2023-01-02T20:52:46.576Z,102247.69
2023-01-02T20:55:15.490Z,102242.19
2023-01-02T20:57:47.242Z,102246.41
2023-01-02T21:00:20.560Z,102245.47
2023-01-02T21:02:48.838Z,102247.22
2023-01-02T21:05:17.399Z,102248.13
2023-01-02T21:07:46.119Z,102257.94
2023-01-02T21:10:14.735Z,102257.03
2023-01-02T21:13:02.050Z,102257.19
2023-01-02T21:15:46.246Z,102251.88
2023-01-02T21:18:18.503Z,102237.53
2023-01-02T21:20:48.921Z,102259.16
2023-01-02T21:23:18.920Z,102216.25
2023-01-02T21:25:47.922Z,102277.22
2023-01-02T21:28:19.126Z,102260.97
2023-01-02T21:30:47.655Z,102284.00
2023-01-02T21:33:19.211Z,102255.44
2023-01-02T21:35:49.749Z,102271.41
2023-01-02T21:38:20.171Z,102275.88
2023-01-02T21:40:48.853Z,102286.31
2023-01-02T21:43:18.592Z,102274.66
2023-01-02T21:45:47.980Z,102260.22
2023-01-02T21:48:16.375Z,102276.41
2023-01-02T21:50:44.791Z,102280.91
2023-01-02T21:53:16.913Z,102268.50
2023-01-02T21:55:45.441Z,102285.25
2023-01-02T21:58:14.735Z,102290.63
2023-01-02T22:00:45.178Z,102300.25
2023-01-02T22:03:14.108Z,102263.78
2023-01-02T22:05:42.535Z,102297.53
2023-01-02T22:08:10.887Z,102317.22
2023-01-02T22:10:39.663Z,102318.13
2023-01-02T22:13:08.006Z,102319.03
2023-01-02T22:15:36.621Z,102321.69
2023-01-02T22:18:06.799Z,102320.59
2023-01-02T22:20:35.118Z,102216.66
2023-01-02T22:23:03.439Z,102341.72
2023-01-02T22:25:32.576Z,102336.31
2023-01-02T22:28:01.169Z,102334.47
2023-01-02T22:30:34.412Z,102233.31
2023-01-02T22:33:05.593Z,102358.50
2023-01-02T22:35:34.204Z,102355.84
2023-01-02T22:38:02.604Z,102353.19
2023-01-02T22:40:31.009Z,102354.13
2023-01-02T22:43:02.027Z,102351.38
2023-01-02T22:45:42.079Z,102346.81
2023-01-02T22:48:20.797Z,102352.59
2023-01-02T22:50:52.235Z,102353.72
2023-01-02T22:53:24.415Z,102338.53
2023-01-02T22:55:53.063Z,102363.03
2023-01-02T22:58:23.159Z,102231.44
2023-01-02T23:00:58.868Z,102378.97
2023-01-02T23:03:31.309Z,102382.50
2023-01-02T23:05:59.914Z,102360.06
2023-01-02T23:08:28.440Z,102350.53
2023-01-02T23:10:56.897Z,102385.41
2023-01-02T23:13:25.232Z,102390.59
2023-01-02T23:16:11.607Z,102403.97
2023-01-02T23:18:58.959Z,102397.75
2023-01-02T23:21:28.854Z,102405.78
2023-01-02T23:23:57.359Z,102407.56
2023-01-02T23:26:29.706Z,102399.66
2023-01-02T23:29:07.423Z,102406.75
2023-01-02T23:31:37.553Z,102389.69
2023-01-02T23:34:07.662Z,102417.13
2023-01-02T23:36:36.585Z,102414.28
2023-01-02T23:39:06.175Z,102412.41
2023-01-02T23:41:35.653Z,102378.28
2023-01-02T23:44:04.218Z,102411.19
2023-01-02T23:46:32.508Z,102403.06
2023-01-02T23:49:01.177Z,102409.00
2023-01-02T23:51:31.897Z,102388.50
2023-01-02T23:54:00.870Z,102409.88
2023-01-02T23:56:31.597Z,102412.41
2023-01-02T23:59:01.870Z,102406.91
